sensor_id;sensor_type;location;lat;lon;timestamp;temperature;humidity
56436;DHT22;42335;44.872;20.658;2024-02-15T00:00:10;128.30;2252.80
56436;DHT22;42335;44.872;20.658;2024-02-15T00:02:36;128.20;2252.80
56436;DHT22;42335;44.872;20.658;2024-02-15T00:05:02;128.20;2252.80
56436;DHT22;42335;44.872;20.658;2024-02-15T00:07:28;128.20;2252.80
56436;DHT22;42335;44.872;20.658;2024-02-15T00:09:54;128.20;2252.80
56436;DHT22;42335;44.872;20.658;2024-02-15T00:12:20;128.20;2252.80
56436;DHT22;42335;44.872;20.658;2024-02-15T00:14:46;128.10;2252.80
56436;DHT22;42335;44.872;20.658;2024-02-15T00:17:12;128.10;2252.80
56436;DHT22;42335;44.872;20.658;2024-02-15T00:19:38;128.00;2252.80
56436;DHT22;42335;44.872;20.658;2024-02-15T00:22:07;128.00;2252.80
56436;DHT22;42335;44.872;20.658;2024-02-15T00:24:32;103.30;2227.20
56436;DHT22;42335;44.872;20.658;2024-02-15T00:26:58;103.30;2227.20
56436;DHT22;42335;44.872;20.658;2024-02-15T00:29:24;103.30;2227.20
56436;DHT22;42335;44.872;20.658;2024-02-15T00:31:51;103.30;2227.20
56436;DHT22;42335;44.872;20.658;2024-02-15T00:34:17;103.30;2227.20
56436;DHT22;42335;44.872;20.658;2024-02-15T00:36:43;103.30;2227.20
56436;DHT22;42335;44.872;20.658;2024-02-15T00:39:12;103.30;2227.20
56436;DHT22;42335;44.872;20.658;2024-02-15T00:41:43;103.30;2227.20
56436;DHT22;42335;44.872;20.658;2024-02-15T00:44:11;103.30;2227.20
56436;DHT22;42335;44.872;20.658;2024-02-15T00:46:37;103.20;2227.20
56436;DHT22;42335;44.872;20.658;2024-02-15T00:49:06;103.20;2227.20
56436;DHT22;42335;44.872;20.658;2024-02-15T00:51:32;103.20;2227.20
56436;DHT22;42335;44.872;20.658;2024-02-15T00:54:00;103.20;2227.20
56436;DHT22;42335;44.872;20.658;2024-02-15T00:56:26;103.10;2227.20
56436;DHT22;42335;44.872;20.658;2024-02-15T00:58:53;103.00;2227.20
56436;DHT22;42335;44.872;20.658;2024-02-15T01:01:19;103.00;2227.20
56436;DHT22;42335;44.872;20.658;2024-02-15T01:03:44;103.00;2227.20
56436;DHT22;42335;44.872;20.658;2024-02-15T01:06:10;103.00;2227.20
56436;DHT22;42335;44.872;20.658;2024-02-15T01:08:36;102.90;2227.20
56436;DHT22;42335;44.872;20.658;2024-02-15T01:11:02;102.90;2227.20
56436;DHT22;42335;44.872;20.658;2024-02-15T01:13:28;102.80;2227.20
56436;DHT22;42335;44.872;20.658;2024-02-15T01:15:54;102.80;2227.20
56436;DHT22;42335;44.872;20.658;2024-02-15T01:18:20;102.90;2227.20
56436;DHT22;42335;44.872;20.658;2024-02-15T01:20:46;102.90;2227.20
56436;DHT22;42335;44.872;20.658;2024-02-15T01:23:11;102.90;2227.20
56436;DHT22;42335;44.872;20.658;2024-02-15T01:25:37;102.90;2227.20
56436;DHT22;42335;44.872;20.658;2024-02-15T01:28:05;102.80;2227.20
56436;DHT22;42335;44.872;20.658;2024-02-15T01:30:31;102.80;2227.20
56436;DHT22;42335;44.872;20.658;2024-02-15T01:32:58;102.80;2227.20
56436;DHT22;42335;44.872;20.658;2024-02-15T01:35:24;102.80;2227.20
56436;DHT22;42335;44.872;20.658;2024-02-15T01:37:50;102.80;2227.20
56436;DHT22;42335;44.872;20.658;2024-02-15T01:40:16;102.70;2227.20
56436;DHT22;42335;44.872;20.658;2024-02-15T01:42:44;102.70;2227.20
56436;DHT22;42335;44.872;20.658;2024-02-15T01:45:09;102.70;2227.20
56436;DHT22;42335;44.872;20.658;2024-02-15T01:47:38;102.70;2227.20
56436;DHT22;42335;44.872;20.658;2024-02-15T01:50:06;102.70;2227.20
56436;DHT22;42335;44.872;20.658;2024-02-15T01:52:33;102.60;2227.20
56436;DHT22;42335;44.872;20.658;2024-02-15T01:54:59;102.60;2227.20
56436;DHT22;42335;44.872;20.658;2024-02-15T01:57:35;102.60;2227.20
56436;DHT22;42335;44.872;20.658;2024-02-15T02:00:04;102.60;2227.20
56436;DHT22;42335;44.872;20.658;2024-02-15T02:02:32;102.60;2227.20
56436;DHT22;42335;44.872;20.658;2024-02-15T02:04:58;102.70;2227.20
56436;DHT22;42335;44.872;20.658;2024-02-15T02:07:24;102.70;2227.20
56436;DHT22;42335;44.872;20.658;2024-02-15T02:09:49;102.70;2227.20
56436;DHT22;42335;44.872;20.658;2024-02-15T02:12:15;102.70;2227.20
56436;DHT22;42335;44.872;20.658;2024-02-15T02:14:43;102.60;2227.20
56436;DHT22;42335;44.872;20.658;2024-02-15T02:17:13;102.70;2227.20
56436;DHT22;42335;44.872;20.658;2024-02-15T02:19:39;102.70;2227.20
56436;DHT22;42335;44.872;20.658;2024-02-15T02:22:05;102.70;2227.20
56436;DHT22;42335;44.872;20.658;2024-02-15T02:24:33;102.70;2227.20
56436;DHT22;42335;44.872;20.658;2024-02-15T02:27:06;102.70;2227.20
56436;DHT22;42335;44.872;20.658;2024-02-15T02:29:33;102.70;2227.20
56436;DHT22;42335;44.872;20.658;2024-02-15T02:31:59;102.70;2227.20
56436;DHT22;42335;44.872;20.658;2024-02-15T02:34:25;102.70;2227.20
56436;DHT22;42335;44.872;20.658;2024-02-15T02:36:51;102.60;2227.20
56436;DHT22;42335;44.872;20.658;2024-02-15T02:39:17;102.60;2227.20
56436;DHT22;42335;44.872;20.658;2024-02-15T02:41:43;102.60;2227.20
56436;DHT22;42335;44.872;20.658;2024-02-15T02:44:09;102.60;2227.20
56436;DHT22;42335;44.872;20.658;2024-02-15T02:46:34;102.60;2227.20
56436;DHT22;42335;44.872;20.658;2024-02-15T02:49:00;102.60;2227.20
56436;DHT22;42335;44.872;20.658;2024-02-15T02:51:26;102.60;2227.20
56436;DHT22;42335;44.872;20.658;2024-02-15T02:53:52;102.60;2227.20
56436;DHT22;42335;44.872;20.658;2024-02-15T02:56:18;102.70;2227.20
56436;DHT22;42335;44.872;20.658;2024-02-15T02:58:44;102.70;2227.20
56436;DHT22;42335;44.872;20.658;2024-02-15T03:01:10;102.70;2227.20
56436;DHT22;42335;44.872;20.658;2024-02-15T03:03:38;102.70;2227.20
56436;DHT22;42335;44.872;20.658;2024-02-15T03:06:05;102.70;2227.20
56436;DHT22;42335;44.872;20.658;2024-02-15T03:08:31;102.70;2227.20
56436;DHT22;42335;44.872;20.658;2024-02-15T03:10:57;102.60;2227.20
56436;DHT22;42335;44.872;20.658;2024-02-15T03:13:23;102.50;2227.20
56436;DHT22;42335;44.872;20.658;2024-02-15T03:15:49;102.50;2227.20
56436;DHT22;42335;44.872;20.658;2024-02-15T03:18:15;102.40;2227.20
56436;DHT22;42335;44.872;20.658;2024-02-15T03:20:41;102.40;2227.20
56436;DHT22;42335;44.872;20.658;2024-02-15T03:23:07;77.70;2227.20
56436;DHT22;42335;44.872;20.658;2024-02-15T03:25:33;77.70;2227.20
56436;DHT22;42335;44.872;20.658;2024-02-15T03:28:00;77.70;2227.20
56436;DHT22;42335;44.872;20.658;2024-02-15T03:30:30;77.70;2227.20
56436;DHT22;42335;44.872;20.658;2024-02-15T03:32:57;77.70;2227.20
56436;DHT22;42335;44.872;20.658;2024-02-15T03:35:25;77.60;2227.20
56436;DHT22;42335;44.872;20.658;2024-02-15T03:37:52;77.60;2227.20
56436;DHT22;42335;44.872;20.658;2024-02-15T03:40:19;77.50;2227.20
56436;DHT22;42335;44.872;20.658;2024-02-15T03:42:45;77.40;2227.20
56436;DHT22;42335;44.872;20.658;2024-02-15T03:45:12;77.30;2227.20
56436;DHT22;42335;44.872;20.658;2024-02-15T03:47:38;77.40;2227.20
56436;DHT22;42335;44.872;20.658;2024-02-15T03:50:05;77.40;2227.20
56436;DHT22;42335;44.872;20.658;2024-02-15T03:52:31;77.40;2227.20
56436;DHT22;42335;44.872;20.658;2024-02-15T03:54:58;77.40;2227.20
56436;DHT22;42335;44.872;20.658;2024-02-15T03:57:25;77.40;2227.20
56436;DHT22;42335;44.872;20.658;2024-02-15T03:59:51;77.40;2227.20
56436;DHT22;42335;44.872;20.658;2024-02-15T04:02:21;77.40;2227.20
56436;DHT22;42335;44.872;20.658;2024-02-15T04:04:49;77.40;2227.20
56436;DHT22;42335;44.872;20.658;2024-02-15T04:07:18;77.40;2227.20
56436;DHT22;42335;44.872;20.658;2024-02-15T04:09:45;77.30;2227.20
56436;DHT22;42335;44.872;20.658;2024-02-15T04:12:12;77.30;2227.20
56436;DHT22;42335;44.872;20.658;2024-02-15T04:14:38;77.20;2227.20
56436;DHT22;42335;44.872;20.658;2024-02-15T04:17:04;77.20;2227.20
56436;DHT22;42335;44.872;20.658;2024-02-15T04:19:31;77.20;2227.20
56436;DHT22;42335;44.872;20.658;2024-02-15T04:21:57;77.20;2227.20
56436;DHT22;42335;44.872;20.658;2024-02-15T04:24:22;77.20;2227.20
56436;DHT22;42335;44.872;20.658;2024-02-15T04:26:49;77.20;2227.20
56436;DHT22;42335;44.872;20.658;2024-02-15T04:29:15;77.30;2227.20
56436;DHT22;42335;44.872;20.658;2024-02-15T04:31:41;77.20;2227.20
56436;DHT22;42335;44.872;20.658;2024-02-15T04:34:08;77.30;2227.20
56436;DHT22;42335;44.872;20.658;2024-02-15T04:36:37;77.30;2227.20
56436;DHT22;42335;44.872;20.658;2024-02-15T04:39:02;77.30;2227.20
56436;DHT22;42335;44.872;20.658;2024-02-15T04:41:29;77.30;2227.20
56436;DHT22;42335;44.872;20.658;2024-02-15T04:43:55;77.30;2227.20
56436;DHT22;42335;44.872;20.658;2024-02-15T04:46:22;77.30;2227.20
56436;DHT22;42335;44.872;20.658;2024-02-15T04:48:48;77.30;2227.20
56436;DHT22;42335;44.872;20.658;2024-02-15T04:51:17;77.20;2227.20
56436;DHT22;42335;44.872;20.658;2024-02-15T04:53:43;77.20;2227.20
56436;DHT22;42335;44.872;20.658;2024-02-15T04:56:12;77.20;2227.20
56436;DHT22;42335;44.872;20.658;2024-02-15T04:58:42;77.10;2227.20
56436;DHT22;42335;44.872;20.658;2024-02-15T05:01:18;77.10;2227.20
56436;DHT22;42335;44.872;20.658;2024-02-15T05:03:44;76.90;2227.20
56436;DHT22;42335;44.872;20.658;2024-02-15T05:06:11;76.90;2227.20
56436;DHT22;42335;44.872;20.658;2024-02-15T05:08:39;76.90;2227.20
56436;DHT22;42335;44.872;20.658;2024-02-15T05:11:11;76.90;2227.20
56436;DHT22;42335;44.872;20.658;2024-02-15T05:13:48;76.90;2227.20
56436;DHT22;42335;44.872;20.658;2024-02-15T05:16:17;76.90;2227.20
56436;DHT22;42335;44.872;20.658;2024-02-15T05:18:44;76.90;2227.20
56436;DHT22;42335;44.872;20.658;2024-02-15T05:21:11;76.90;2227.20
56436;DHT22;42335;44.872;20.658;2024-02-15T05:23:39;76.90;2227.20
56436;DHT22;42335;44.872;20.658;2024-02-15T05:26:10;76.90;2227.20
56436;DHT22;42335;44.872;20.658;2024-02-15T05:28:38;76.90;2227.20
56436;DHT22;42335;44.872;20.658;2024-02-15T05:31:20;76.90;2227.20
56436;DHT22;42335;44.872;20.658;2024-02-15T05:33:49;76.90;2227.20
56436;DHT22;42335;44.872;20.658;2024-02-15T05:36:17;76.90;2227.20
56436;DHT22;42335;44.872;20.658;2024-02-15T05:38:48;76.90;2227.20
56436;DHT22;42335;44.872;20.658;2024-02-15T05:41:14;76.90;2227.20
56436;DHT22;42335;44.872;20.658;2024-02-15T05:43:40;76.90;2227.20
56436;DHT22;42335;44.872;20.658;2024-02-15T05:46:09;76.90;2227.20
56436;DHT22;42335;44.872;20.658;2024-02-15T05:48:36;76.90;2227.20
56436;DHT22;42335;44.872;20.658;2024-02-15T05:51:07;76.90;2227.20
56436;DHT22;42335;44.872;20.658;2024-02-15T05:53:34;76.90;2227.20
56436;DHT22;42335;44.872;20.658;2024-02-15T05:56:07;76.90;2227.20
56436;DHT22;42335;44.872;20.658;2024-02-15T05:58:34;76.90;2227.20
56436;DHT22;42335;44.872;20.658;2024-02-15T06:01:02;77.10;2227.20
56436;DHT22;42335;44.872;20.658;2024-02-15T06:03:28;77.10;2227.20
56436;DHT22;42335;44.872;20.658;2024-02-15T06:05:55;77.20;2227.20
56436;DHT22;42335;44.872;20.658;2024-02-15T06:08:30;77.20;2227.20
56436;DHT22;42335;44.872;20.658;2024-02-15T06:10:56;77.30;2227.20
56436;DHT22;42335;44.872;20.658;2024-02-15T06:13:23;77.20;2227.20
56436;DHT22;42335;44.872;20.658;2024-02-15T06:15:49;77.30;2227.20
56436;DHT22;42335;44.872;20.658;2024-02-15T06:18:25;77.40;2227.20
56436;DHT22;42335;44.872;20.658;2024-02-15T06:20:53;77.50;2227.20
56436;DHT22;42335;44.872;20.658;2024-02-15T06:23:19;77.50;2227.20
56436;DHT22;42335;44.872;20.658;2024-02-15T06:25:46;77.70;2227.20
56436;DHT22;42335;44.872;20.658;2024-02-15T06:28:15;77.70;2227.20
56436;DHT22;42335;44.872;20.658;2024-02-15T06:30:59;102.40;2227.20
56436;DHT22;42335;44.872;20.658;2024-02-15T06:33:43;102.50;2227.20
56436;DHT22;42335;44.872;20.658;2024-02-15T06:36:27;102.50;2227.20
56436;DHT22;42335;44.872;20.658;2024-02-15T06:39:11;102.60;2227.20
56436;DHT22;42335;44.872;20.658;2024-02-15T06:41:56;102.70;2227.20
56436;DHT22;42335;44.872;20.658;2024-02-15T06:44:22;102.90;2227.20
56436;DHT22;42335;44.872;20.658;2024-02-15T06:46:49;102.80;2227.20
56436;DHT22;42335;44.872;20.658;2024-02-15T06:49:16;102.90;2227.20
56436;DHT22;42335;44.872;20.658;2024-02-15T06:51:42;103.00;2227.20
56436;DHT22;42335;44.872;20.658;2024-02-15T06:54:09;103.20;2227.20
56436;DHT22;42335;44.872;20.658;2024-02-15T06:56:38;103.30;2227.20
56436;DHT22;42335;44.872;20.658;2024-02-15T06:59:05;128.30;2252.80
56436;DHT22;42335;44.872;20.658;2024-02-15T07:01:31;128.80;2252.80
56436;DHT22;42335;44.872;20.658;2024-02-15T07:03:59;153.80;2252.80
56436;DHT22;42335;44.872;20.658;2024-02-15T07:06:26;154.50;2252.80
56436;DHT22;42335;44.872;20.658;2024-02-15T07:08:52;179.90;2252.80
56436;DHT22;42335;44.872;20.658;2024-02-15T07:11:20;205.40;2252.80
56436;DHT22;42335;44.872;20.658;2024-02-15T07:13:47;231.00;2252.80
56436;DHT22;42335;44.872;20.658;2024-02-15T07:16:13;307.30;1996.80
56436;DHT22;42335;44.872;20.658;2024-02-15T07:18:41;384.80;1587.20
56436;DHT22;42335;44.872;20.658;2024-02-15T07:21:08;461.50;1356.80
56436;DHT22;42335;44.872;20.658;2024-02-15T07:23:40;537.60;1203.20
56436;DHT22;42335;44.872;20.658;2024-02-15T07:26:07;564.00;1100.80
56436;DHT22;42335;44.872;20.658;2024-02-15T07:28:33;614.60;998.40
56436;DHT22;42335;44.872;20.658;2024-02-15T07:30:59;640.50;921.60
56436;DHT22;42335;44.872;20.658;2024-02-15T07:33:28;666.50;896.00
56436;DHT22;42335;44.872;20.658;2024-02-15T07:35:54;692.10;819.20
56436;DHT22;42335;44.872;20.658;2024-02-15T07:38:22;742.40;819.20
56436;DHT22;42335;44.872;20.658;2024-02-15T07:40:52;743.30;793.60
56436;DHT22;42335;44.872;20.658;2024-02-15T07:43:18;793.70;768.00
56436;DHT22;42335;44.872;20.658;2024-02-15T07:45:43;819.30;716.80
56436;DHT22;42335;44.872;20.658;2024-02-15T07:48:09;844.90;691.20
56436;DHT22;42335;44.872;20.658;2024-02-15T07:50:35;870.40;665.60
56436;DHT22;42335;44.872;20.658;2024-02-15T07:53:03;845.70;665.60
56436;DHT22;42335;44.872;20.658;2024-02-15T07:55:32;871.00;640.00
56436;DHT22;42335;44.872;20.658;2024-02-15T07:57:57;871.10;614.40
56436;DHT22;42335;44.872;20.658;2024-02-15T08:00:25;896.70;588.80
56436;DHT22;42335;44.872;20.658;2024-02-15T08:02:53;922.20;588.80
56436;DHT22;42335;44.872;20.658;2024-02-15T08:05:19;947.20;563.20
56436;DHT22;42335;44.872;20.658;2024-02-15T08:07:46;947.90;537.60
56436;DHT22;42335;44.872;20.658;2024-02-15T08:10:15;973.70;537.60
56436;DHT22;42335;44.872;20.658;2024-02-15T08:12:45;998.80;563.20
56436;DHT22;42335;44.872;20.658;2024-02-15T08:15:11;999.20;512.00
56436;DHT22;42335;44.872;20.658;2024-02-15T08:17:46;999.00;512.00
56436;DHT22;42335;44.872;20.658;2024-02-15T08:20:13;1024.60;512.00
56436;DHT22;42335;44.872;20.658;2024-02-15T08:22:40;1050.10;512.00
56436;DHT22;42335;44.872;20.658;2024-02-15T08:25:10;1075.40;512.00
56436;DHT22;42335;44.872;20.658;2024-02-15T08:27:56;1076.10;486.40
56436;DHT22;42335;44.872;20.658;2024-02-15T08:30:22;1101.40;460.80
56436;DHT22;42335;44.872;20.658;2024-02-15T08:32:49;1101.70;435.20
56436;DHT22;42335;44.872;20.658;2024-02-15T08:35:15;1127.10;435.20
56436;DHT22;42335;44.872;20.658;2024-02-15T08:37:41;1127.10;460.80
56436;DHT22;42335;44.872;20.658;2024-02-15T08:40:09;1152.50;409.60
56436;DHT22;42335;44.872;20.658;2024-02-15T08:42:42;1127.10;409.60
56436;DHT22;42335;44.872;20.658;2024-02-15T08:45:09;1152.60;409.60
56436;DHT22;42335;44.872;20.658;2024-02-15T08:47:44;1203.20;435.20
56436;DHT22;42335;44.872;20.658;2024-02-15T08:50:11;1203.30;435.20
56436;DHT22;42335;44.872;20.658;2024-02-15T08:52:38;1203.70;435.20
56436;DHT22;42335;44.872;20.658;2024-02-15T08:55:11;1203.70;435.20
56436;DHT22;42335;44.872;20.658;2024-02-15T08:57:40;1204.10;435.20
56436;DHT22;42335;44.872;20.658;2024-02-15T09:00:10;1228.90;460.80
56436;DHT22;42335;44.872;20.658;2024-02-15T09:02:57;1229.40;460.80
56436;DHT22;42335;44.872;20.658;2024-02-15T09:05:23;1229.50;460.80
56436;DHT22;42335;44.872;20.658;2024-02-15T09:07:49;1229.50;460.80
56436;DHT22;42335;44.872;20.658;2024-02-15T09:10:18;1229.30;460.80
56436;DHT22;42335;44.872;20.658;2024-02-15T09:12:45;1229.40;460.80
56436;DHT22;42335;44.872;20.658;2024-02-15T09:15:15;1254.80;486.40
56436;DHT22;42335;44.872;20.658;2024-02-15T09:17:41;1255.10;486.40
56436;DHT22;42335;44.872;20.658;2024-02-15T09:20:13;1280.50;486.40
56436;DHT22;42335;44.872;20.658;2024-02-15T09:22:51;1280.70;486.40
56436;DHT22;42335;44.872;20.658;2024-02-15T09:25:17;1305.70;486.40
56436;DHT22;42335;44.872;20.658;2024-02-15T09:27:44;1306.50;486.40
56436;DHT22;42335;44.872;20.658;2024-02-15T09:30:11;1331.20;512.00
56436;DHT22;42335;44.872;20.658;2024-02-15T09:32:38;1331.70;512.00
56436;DHT22;42335;44.872;20.658;2024-02-15T09:35:05;1356.90;537.60
56436;DHT22;42335;44.872;20.658;2024-02-15T09:37:34;1357.10;537.60
56436;DHT22;42335;44.872;20.658;2024-02-15T09:40:00;1357.10;537.60
56436;DHT22;42335;44.872;20.658;2024-02-15T09:42:31;1357.70;537.60
56436;DHT22;42335;44.872;20.658;2024-02-15T09:45:00;1382.40;563.20
56436;DHT22;42335;44.872;20.658;2024-02-15T09:47:33;1382.60;563.20
56436;DHT22;42335;44.872;20.658;2024-02-15T09:50:00;1383.30;563.20
56436;DHT22;42335;44.872;20.658;2024-02-15T09:52:27;1383.30;563.20
56436;DHT22;42335;44.872;20.658;2024-02-15T09:55:00;1383.30;563.20
56436;DHT22;42335;44.872;20.658;2024-02-15T09:57:29;1408.40;563.20
56436;DHT22;42335;44.872;20.658;2024-02-15T09:59:55;1408.40;563.20
56436;DHT22;42335;44.872;20.658;2024-02-15T10:02:21;1408.20;563.20
56436;DHT22;42335;44.872;20.658;2024-02-15T10:04:47;1408.50;563.20
56436;DHT22;42335;44.872;20.658;2024-02-15T10:07:14;1408.70;563.20
56436;DHT22;42335;44.872;20.658;2024-02-15T10:09:39;1408.90;563.20
56436;DHT22;42335;44.872;20.658;2024-02-15T10:12:09;1433.90;588.80
56436;DHT22;42335;44.872;20.658;2024-02-15T10:14:35;1434.30;588.80
56436;DHT22;42335;44.872;20.658;2024-02-15T10:17:08;1434.10;588.80
56436;DHT22;42335;44.872;20.658;2024-02-15T10:19:40;1459.70;614.40
56436;DHT22;42335;44.872;20.658;2024-02-15T10:22:08;1459.90;614.40
56436;DHT22;42335;44.872;20.658;2024-02-15T10:24:35;1459.50;614.40
56436;DHT22;42335;44.872;20.658;2024-02-15T10:27:02;1459.30;614.40
56436;DHT22;42335;44.872;20.658;2024-02-15T10:29:35;1434.10;588.80
56436;DHT22;42335;44.872;20.658;2024-02-15T10:32:02;1408.50;563.20
56436;DHT22;42335;44.872;20.658;2024-02-15T10:34:28;1434.10;588.80
56436;DHT22;42335;44.872;20.658;2024-02-15T10:37:17;1459.70;614.40
56436;DHT22;42335;44.872;20.658;2024-02-15T10:39:45;1459.70;614.40
56436;DHT22;42335;44.872;20.658;2024-02-15T10:42:13;1460.10;614.40
56436;DHT22;42335;44.872;20.658;2024-02-15T10:44:39;1459.30;614.40
56436;DHT22;42335;44.872;20.658;2024-02-15T10:47:07;1459.90;614.40
56436;DHT22;42335;44.872;20.658;2024-02-15T10:49:34;1459.90;614.40
56436;DHT22;42335;44.872;20.658;2024-02-15T10:52:04;1459.30;614.40
56436;DHT22;42335;44.872;20.658;2024-02-15T10:54:41;1459.70;614.40
56436;DHT22;42335;44.872;20.658;2024-02-15T10:57:12;1484.80;640.00
56436;DHT22;42335;44.872;20.658;2024-02-15T10:59:48;1485.30;640.00
56436;DHT22;42335;44.872;20.658;2024-02-15T11:04:58;1485.20;640.00
56436;DHT22;42335;44.872;20.658;2024-02-15T11:07:28;1485.70;640.00
56436;DHT22;42335;44.872;20.658;2024-02-15T11:09:55;1485.20;640.00
56436;DHT22;42335;44.872;20.658;2024-02-15T11:12:24;1510.70;640.00
56436;DHT22;42335;44.872;20.658;2024-02-15T11:14:54;1510.50;640.00
56436;DHT22;42335;44.872;20.658;2024-02-15T11:23:04;1511.30;640.00
56436;DHT22;42335;44.872;20.658;2024-02-15T11:25:34;1510.50;640.00
56436;DHT22;42335;44.872;20.658;2024-02-15T11:30:50;1510.50;640.00
56436;DHT22;42335;44.872;20.658;2024-02-15T11:33:28;1511.10;640.00
56436;DHT22;42335;44.872;20.658;2024-02-15T11:36:05;1485.70;640.00
56436;DHT22;42335;44.872;20.658;2024-02-15T11:38:31;1459.90;614.40
56436;DHT22;42335;44.872;20.658;2024-02-15T11:46:16;1484.80;640.00
56436;DHT22;42335;44.872;20.658;2024-02-15T11:48:46;1460.10;614.40
56436;DHT22;42335;44.872;20.658;2024-02-15T11:51:30;1460.10;614.40
56436;DHT22;42335;44.872;20.658;2024-02-15T11:54:04;1434.50;588.80
56436;DHT22;42335;44.872;20.658;2024-02-15T11:59:09;1459.50;614.40
56436;DHT22;42335;44.872;20.658;2024-02-15T12:01:44;1433.90;588.80
56436;DHT22;42335;44.872;20.658;2024-02-15T12:04:29;1459.50;614.40
56436;DHT22;42335;44.872;20.658;2024-02-15T12:07:14;1408.90;563.20
56436;DHT22;42335;44.872;20.658;2024-02-15T12:09:59;1408.40;563.20
56436;DHT22;42335;44.872;20.658;2024-02-15T12:12:54;1408.90;563.20
56436;DHT22;42335;44.872;20.658;2024-02-15T12:15:39;1383.10;563.20
56436;DHT22;42335;44.872;20.658;2024-02-15T12:18:23;1356.90;537.60
56436;DHT22;42335;44.872;20.658;2024-02-15T12:21:09;1228.90;460.80
56436;DHT22;42335;44.872;20.658;2024-02-15T12:23:37;1075.30;384.00
56436;DHT22;42335;44.872;20.658;2024-02-15T12:26:03;972.80;460.80
56436;DHT22;42335;44.872;20.658;2024-02-15T12:28:30;871.30;512.00
56436;DHT22;42335;44.872;20.658;2024-02-15T12:30:57;819.70;563.20
56436;DHT22;42335;44.872;20.658;2024-02-15T12:33:23;768.10;640.00
56436;DHT22;42335;44.872;20.658;2024-02-15T12:35:49;717.40;691.20
56436;DHT22;42335;44.872;20.658;2024-02-15T12:38:18;691.20;716.80
56436;DHT22;42335;44.872;20.658;2024-02-15T12:40:45;666.20;742.40
56436;DHT22;42335;44.872;20.658;2024-02-15T12:43:11;640.60;742.40
56436;DHT22;42335;44.872;20.658;2024-02-15T12:45:41;640.10;768.00
56436;DHT22;42335;44.872;20.658;2024-02-15T12:48:08;615.10;793.60
56436;DHT22;42335;44.872;20.658;2024-02-15T12:50:34;614.90;819.20
56436;DHT22;42335;44.872;20.658;2024-02-15T12:53:01;589.70;844.80
56436;DHT22;42335;44.872;20.658;2024-02-15T12:55:32;589.20;870.40
56436;DHT22;42335;44.872;20.658;2024-02-15T12:58:01;589.10;896.00
56436;DHT22;42335;44.872;20.658;2024-02-15T13:00:30;588.90;896.00
56436;DHT22;42335;44.872;20.658;2024-02-15T13:03:04;564.10;921.60
56436;DHT22;42335;44.872;20.658;2024-02-15T13:05:34;563.90;921.60
56436;DHT22;42335;44.872;20.658;2024-02-15T13:08:00;563.50;947.20
56436;DHT22;42335;44.872;20.658;2024-02-15T13:10:29;563.30;947.20
56436;DHT22;42335;44.872;20.658;2024-02-15T13:12:55;563.20;972.80
56436;DHT22;42335;44.872;20.658;2024-02-15T13:15:22;538.20;972.80
56436;DHT22;42335;44.872;20.658;2024-02-15T13:17:53;538.10;972.80
56436;DHT22;42335;44.872;20.658;2024-02-15T13:20:23;538.00;998.40
56436;DHT22;42335;44.872;20.658;2024-02-15T13:23:00;512.90;998.40
56436;DHT22;42335;44.872;20.658;2024-02-15T13:25:32;512.70;998.40
56436;DHT22;42335;44.872;20.658;2024-02-15T13:27:57;512.30;1024.00
56436;DHT22;42335;44.872;20.658;2024-02-15T13:30:23;512.30;1024.00
56436;DHT22;42335;44.872;20.658;2024-02-15T13:32:53;512.40;1024.00
56436;DHT22;42335;44.872;20.658;2024-02-15T13:35:20;512.20;1049.60
56436;DHT22;42335;44.872;20.658;2024-02-15T13:37:50;487.20;1049.60
56436;DHT22;42335;44.872;20.658;2024-02-15T13:40:18;486.90;1049.60
56436;DHT22;42335;44.872;20.658;2024-02-15T13:42:46;486.80;1075.20
56436;DHT22;42335;44.872;20.658;2024-02-15T13:45:39;486.50;1100.80
56436;DHT22;42335;44.872;20.658;2024-02-15T13:48:05;486.40;1100.80
56436;DHT22;42335;44.872;20.658;2024-02-15T13:50:33;461.70;1100.80
56436;DHT22;42335;44.872;20.658;2024-02-15T13:52:59;461.70;1126.40
56436;DHT22;42335;44.872;20.658;2024-02-15T13:55:26;461.70;1126.40
56436;DHT22;42335;44.872;20.658;2024-02-15T13:57:52;461.50;1152.00
56436;DHT22;42335;44.872;20.658;2024-02-15T14:00:19;461.50;1152.00
56436;DHT22;42335;44.872;20.658;2024-02-15T14:02:52;461.60;1152.00
56436;DHT22;42335;44.872;20.658;2024-02-15T14:05:26;461.40;1152.00
56436;DHT22;42335;44.872;20.658;2024-02-15T14:07:58;461.40;1152.00
56436;DHT22;42335;44.872;20.658;2024-02-15T14:10:26;461.20;1177.60
56436;DHT22;42335;44.872;20.658;2024-02-15T14:12:53;461.10;1177.60
56436;DHT22;42335;44.872;20.658;2024-02-15T14:15:24;460.90;1177.60
56436;DHT22;42335;44.872;20.658;2024-02-15T14:17:50;460.90;1203.20
56436;DHT22;42335;44.872;20.658;2024-02-15T14:20:16;460.80;1203.20
56436;DHT22;42335;44.872;20.658;2024-02-15T14:22:44;436.10;1177.60
56436;DHT22;42335;44.872;20.658;2024-02-15T14:25:10;436.10;1203.20
56436;DHT22;42335;44.872;20.658;2024-02-15T14:32:52;436.10;1177.60
56436;DHT22;42335;44.872;20.658;2024-02-15T14:35:39;435.80;1177.60
56436;DHT22;42335;44.872;20.658;2024-02-15T14:38:12;435.60;1228.80
56436;DHT22;42335;44.872;20.658;2024-02-15T14:40:40;435.80;1228.80
56436;DHT22;42335;44.872;20.658;2024-02-15T14:43:07;435.70;1228.80
56436;DHT22;42335;44.872;20.658;2024-02-15T14:53:02;435.70;1228.80
56436;DHT22;42335;44.872;20.658;2024-02-15T14:55:28;435.30;1254.40
56436;DHT22;42335;44.872;20.658;2024-02-15T14:57:57;435.20;1254.40
56436;DHT22;42335;44.872;20.658;2024-02-15T15:00:23;435.20;1254.40
56436;DHT22;42335;44.872;20.658;2024-02-15T15:02:51;435.30;1280.00
56436;DHT22;42335;44.872;20.658;2024-02-15T15:05:16;435.20;1280.00
56436;DHT22;42335;44.872;20.658;2024-02-15T15:10:46;435.20;1280.00
56436;DHT22;42335;44.872;20.658;2024-02-15T15:13:35;410.30;1280.00
56436;DHT22;42335;44.872;20.658;2024-02-15T15:16:02;410.20;1305.60
56436;DHT22;42335;44.872;20.658;2024-02-15T15:18:29;410.10;1305.60
56436;DHT22;42335;44.872;20.658;2024-02-15T15:20:57;409.90;1305.60